sensor_id;sensor_type;location;lat;lon;timestamp;P1;durP1;ratioP1;P2;durP2;ratioP2
54947;SDS011;41113;41.882;12.530;2022-10-16T00:00:51;35.30;;;23.98;;
54947;SDS011;41113;41.882;12.530;2022-10-16T00:03:16;32.42;;;21.83;;
54947;SDS011;41113;41.882;12.530;2022-10-16T00:05:42;39.17;;;23.00;;
54947;SDS011;41113;41.882;12.530;2022-10-16T00:08:11;38.85;;;22.80;;
54947;SDS011;41113;41.882;12.530;2022-10-16T00:10:38;38.10;;;24.00;;
54947;SDS011;41113;41.882;12.530;2022-10-16T00:13:06;37.83;;;23.88;;
54947;SDS011;41113;41.882;12.530;2022-10-16T00:15:35;37.40;;;23.88;;
54947;SDS011;41113;41.882;12.530;2022-10-16T00:18:03;31.45;;;22.05;;
54947;SDS011;41113;41.882;12.530;2022-10-16T00:20:29;34.53;;;22.83;;
54947;SDS011;41113;41.882;12.530;2022-10-16T00:22:56;40.08;;;24.05;;
54947;SDS011;41113;41.882;12.530;2022-10-16T00:25:22;37.58;;;24.27;;
54947;SDS011;41113;41.882;12.530;2022-10-16T00:27:47;36.67;;;23.63;;
54947;SDS011;41113;41.882;12.530;2022-10-16T00:30:13;35.42;;;23.33;;
54947;SDS011;41113;41.882;12.530;2022-10-16T00:32:38;34.60;;;22.33;;
54947;SDS011;41113;41.882;12.530;2022-10-16T00:35:04;32.33;;;21.63;;
54947;SDS011;41113;41.882;12.530;2022-10-16T00:37:30;35.10;;;20.98;;
54947;SDS011;41113;41.882;12.530;2022-10-16T00:39:55;29.83;;;20.63;;
54947;SDS011;41113;41.882;12.530;2022-10-16T00:42:20;29.30;;;18.88;;
54947;SDS011;41113;41.882;12.530;2022-10-16T00:44:51;30.90;;;18.85;;
54947;SDS011;41113;41.882;12.530;2022-10-16T00:47:24;31.30;;;18.70;;
54947;SDS011;41113;41.882;12.530;2022-10-16T00:49:58;28.13;;;17.33;;
54947;SDS011;41113;41.882;12.530;2022-10-16T00:52:30;27.20;;;17.05;;
54947;SDS011;41113;41.882;12.530;2022-10-16T00:54:55;27.27;;;15.50;;
54947;SDS011;41113;41.882;12.530;2022-10-16T00:57:22;27.10;;;17.55;;
54947;SDS011;41113;41.882;12.530;2022-10-16T00:59:48;27.42;;;16.33;;
54947;SDS011;41113;41.882;12.530;2022-10-16T01:02:14;26.27;;;16.83;;
54947;SDS011;41113;41.882;12.530;2022-10-16T01:04:44;26.55;;;16.27;;
54947;SDS011;41113;41.882;12.530;2022-10-16T01:09:53;26.83;;;16.67;;
54947;SDS011;41113;41.882;12.530;2022-10-16T01:15:01;26.98;;;17.40;;
54947;SDS011;41113;41.882;12.530;2022-10-16T01:17:30;27.27;;;19.20;;
54947;SDS011;41113;41.882;12.530;2022-10-16T01:25:39;28.23;;;17.52;;
54947;SDS011;41113;41.882;12.530;2022-10-16T01:28:11;27.08;;;18.60;;
54947;SDS011;41113;41.882;12.530;2022-10-16T01:30:40;28.13;;;18.10;;
54947;SDS011;41113;41.882;12.530;2022-10-16T01:35:47;27.98;;;17.15;;
54947;SDS011;41113;41.882;12.530;2022-10-16T01:38:24;27.65;;;17.85;;
54947;SDS011;41113;41.882;12.530;2022-10-16T01:41:05;29.85;;;17.15;;
54947;SDS011;41113;41.882;12.530;2022-10-16T01:43:43;28.20;;;17.70;;
54947;SDS011;41113;41.882;12.530;2022-10-16T01:46:30;28.95;;;17.38;;
54947;SDS011;41113;41.882;12.530;2022-10-16T01:48:57;28.35;;;17.60;;
54947;SDS011;41113;41.882;12.530;2022-10-16T01:51:24;25.80;;;16.20;;
54947;SDS011;41113;41.882;12.530;2022-10-16T01:53:52;25.92;;;16.17;;
54947;SDS011;41113;41.882;12.530;2022-10-16T01:56:20;27.42;;;15.60;;
54947;SDS011;41113;41.882;12.530;2022-10-16T01:59:02;23.40;;;15.83;;
54947;SDS011;41113;41.882;12.530;2022-10-16T02:01:32;26.73;;;16.15;;
54947;SDS011;41113;41.882;12.530;2022-10-16T02:06:48;26.33;;;16.88;;
54947;SDS011;41113;41.882;12.530;2022-10-16T02:09:13;23.55;;;16.05;;
54947;SDS011;41113;41.882;12.530;2022-10-16T02:11:41;23.80;;;16.27;;
54947;SDS011;41113;41.882;12.530;2022-10-16T02:14:08;23.73;;;16.33;;
54947;SDS011;41113;41.882;12.530;2022-10-16T02:16:40;25.08;;;15.90;;
54947;SDS011;41113;41.882;12.530;2022-10-16T02:19:09;23.73;;;14.85;;
54947;SDS011;41113;41.882;12.530;2022-10-16T02:30:07;25.98;;;14.88;;
54947;SDS011;41113;41.882;12.530;2022-10-16T02:32:41;24.73;;;14.30;;
54947;SDS011;41113;41.882;12.530;2022-10-16T02:35:08;25.05;;;14.40;;
54947;SDS011;41113;41.882;12.530;2022-10-16T02:37:35;24.80;;;14.95;;
54947;SDS011;41113;41.882;12.530;2022-10-16T02:40:03;24.95;;;15.02;;
54947;SDS011;41113;41.882;12.530;2022-10-16T02:42:37;21.73;;;14.70;;
54947;SDS011;41113;41.882;12.530;2022-10-16T02:45:07;20.77;;;14.32;;
54947;SDS011;41113;41.882;12.530;2022-10-16T02:47:34;22.92;;;14.95;;
54947;SDS011;41113;41.882;12.530;2022-10-16T02:49:59;24.38;;;14.27;;
54947;SDS011;41113;41.882;12.530;2022-10-16T02:52:25;24.40;;;15.70;;
54947;SDS011;41113;41.882;12.530;2022-10-16T02:54:50;23.48;;;15.50;;
54947;SDS011;41113;41.882;12.530;2022-10-16T02:57:16;26.67;;;15.32;;
54947;SDS011;41113;41.882;12.530;2022-10-16T02:59:43;25.00;;;15.50;;
54947;SDS011;41113;41.882;12.530;2022-10-16T03:02:09;25.98;;;16.27;;
54947;SDS011;41113;41.882;12.530;2022-10-16T03:04:34;22.80;;;14.65;;
54947;SDS011;41113;41.882;12.530;2022-10-16T03:07:00;22.73;;;13.68;;
54947;SDS011;41113;41.882;12.530;2022-10-16T03:09:25;24.00;;;14.55;;
54947;SDS011;41113;41.882;12.530;2022-10-16T03:11:51;23.98;;;15.52;;
54947;SDS011;41113;41.882;12.530;2022-10-16T03:14:17;25.08;;;14.50;;
54947;SDS011;41113;41.882;12.530;2022-10-16T03:16:42;23.70;;;14.68;;
54947;SDS011;41113;41.882;12.530;2022-10-16T03:19:08;22.98;;;13.95;;
54947;SDS011;41113;41.882;12.530;2022-10-16T03:21:34;23.02;;;15.50;;
54947;SDS011;41113;41.882;12.530;2022-10-16T03:23:59;30.42;;;18.52;;
54947;SDS011;41113;41.882;12.530;2022-10-16T03:26:25;26.48;;;18.55;;
54947;SDS011;41113;41.882;12.530;2022-10-16T03:28:50;29.73;;;19.58;;
54947;SDS011;41113;41.882;12.530;2022-10-16T03:31:16;29.95;;;19.30;;
54947;SDS011;41113;41.882;12.530;2022-10-16T03:33:41;29.33;;;18.10;;
54947;SDS011;41113;41.882;12.530;2022-10-16T03:36:06;27.73;;;17.52;;
54947;SDS011;41113;41.882;12.530;2022-10-16T03:38:32;26.00;;;16.92;;
54947;SDS011;41113;41.882;12.530;2022-10-16T03:40:58;26.77;;;17.08;;
54947;SDS011;41113;41.882;12.530;2022-10-16T03:43:23;26.83;;;17.58;;
54947;SDS011;41113;41.882;12.530;2022-10-16T03:45:50;28.20;;;16.77;;
54947;SDS011;41113;41.882;12.530;2022-10-16T03:48:16;25.48;;;15.75;;
54947;SDS011;41113;41.882;12.530;2022-10-16T03:50:42;28.50;;;17.52;;
54947;SDS011;41113;41.882;12.530;2022-10-16T03:53:19;26.02;;;16.05;;
54947;SDS011;41113;41.882;12.530;2022-10-16T03:55:44;24.08;;;16.38;;
54947;SDS011;41113;41.882;12.530;2022-10-16T03:58:10;27.08;;;16.02;;
54947;SDS011;41113;41.882;12.530;2022-10-16T04:00:35;22.35;;;15.15;;
54947;SDS011;41113;41.882;12.530;2022-10-16T04:03:11;23.83;;;15.85;;
54947;SDS011;41113;41.882;12.530;2022-10-16T04:05:36;22.15;;;15.50;;
54947;SDS011;41113;41.882;12.530;2022-10-16T04:08:02;23.77;;;16.08;;
54947;SDS011;41113;41.882;12.530;2022-10-16T04:10:28;24.75;;;15.80;;
54947;SDS011;41113;41.882;12.530;2022-10-16T04:12:54;22.92;;;14.27;;
54947;SDS011;41113;41.882;12.530;2022-10-16T04:15:20;24.63;;;15.02;;
54947;SDS011;41113;41.882;12.530;2022-10-16T04:17:47;25.20;;;14.85;;
54947;SDS011;41113;41.882;12.530;2022-10-16T04:20:12;25.00;;;15.95;;
54947;SDS011;41113;41.882;12.530;2022-10-16T04:22:37;26.58;;;16.35;;
54947;SDS011;41113;41.882;12.530;2022-10-16T04:25:04;26.60;;;16.45;;
54947;SDS011;41113;41.882;12.530;2022-10-16T04:27:30;23.85;;;15.45;;
54947;SDS011;41113;41.882;12.530;2022-10-16T04:29:56;25.40;;;16.23;;
54947;SDS011;41113;41.882;12.530;2022-10-16T04:32:22;24.40;;;15.82;;
54947;SDS011;41113;41.882;12.530;2022-10-16T04:34:48;25.17;;;15.30;;
54947;SDS011;41113;41.882;12.530;2022-10-16T04:37:16;23.55;;;15.02;;
54947;SDS011;41113;41.882;12.530;2022-10-16T04:39:41;21.67;;;15.52;;
54947;SDS011;41113;41.882;12.530;2022-10-16T04:42:07;23.73;;;15.07;;
54947;SDS011;41113;41.882;12.530;2022-10-16T04:44:35;22.67;;;14.50;;
54947;SDS011;41113;41.882;12.530;2022-10-16T04:47:01;20.25;;;13.25;;
54947;SDS011;41113;41.882;12.530;2022-10-16T04:49:26;25.10;;;15.13;;
54947;SDS011;41113;41.882;12.530;2022-10-16T04:51:51;24.73;;;14.30;;
54947;SDS011;41113;41.882;12.530;2022-10-16T04:54:17;25.80;;;15.02;;
54947;SDS011;41113;41.882;12.530;2022-10-16T04:56:42;23.45;;;14.60;;
54947;SDS011;41113;41.882;12.530;2022-10-16T04:59:12;24.80;;;16.20;;
54947;SDS011;41113;41.882;12.530;2022-10-16T05:04:06;22.02;;;14.40;;
54947;SDS011;41113;41.882;12.530;2022-10-16T05:06:32;24.55;;;14.43;;
54947;SDS011;41113;41.882;12.530;2022-10-16T05:08:57;22.77;;;14.30;;
54947;SDS011;41113;41.882;12.530;2022-10-16T05:11:23;24.98;;;15.00;;
54947;SDS011;41113;41.882;12.530;2022-10-16T05:13:48;21.77;;;13.93;;
54947;SDS011;41113;41.882;12.530;2022-10-16T05:16:14;23.15;;;14.05;;
54947;SDS011;41113;41.882;12.530;2022-10-16T05:18:39;21.75;;;13.63;;
54947;SDS011;41113;41.882;12.530;2022-10-16T05:23:50;21.92;;;13.45;;
54947;SDS011;41113;41.882;12.530;2022-10-16T05:26:18;22.75;;;14.20;;
54947;SDS011;41113;41.882;12.530;2022-10-16T05:28:43;20.60;;;13.45;;
54947;SDS011;41113;41.882;12.530;2022-10-16T05:31:09;23.20;;;12.90;;
54947;SDS011;41113;41.882;12.530;2022-10-16T05:33:35;21.52;;;13.60;;
54947;SDS011;41113;41.882;12.530;2022-10-16T05:36:01;21.88;;;13.82;;
54947;SDS011;41113;41.882;12.530;2022-10-16T05:38:32;21.48;;;12.63;;
54947;SDS011;41113;41.882;12.530;2022-10-16T05:40:58;24.00;;;14.18;;
54947;SDS011;41113;41.882;12.530;2022-10-16T05:43:23;20.10;;;12.65;;
54947;SDS011;41113;41.882;12.530;2022-10-16T05:46:03;21.80;;;13.40;;
54947;SDS011;41113;41.882;12.530;2022-10-16T05:48:30;22.65;;;13.90;;
54947;SDS011;41113;41.882;12.530;2022-10-16T05:51:03;21.10;;;12.65;;
54947;SDS011;41113;41.882;12.530;2022-10-16T05:53:32;21.95;;;13.75;;
54947;SDS011;41113;41.882;12.530;2022-10-16T05:55:59;25.20;;;14.25;;
54947;SDS011;41113;41.882;12.530;2022-10-16T05:58:28;23.75;;;13.20;;
54947;SDS011;41113;41.882;12.530;2022-10-16T06:00:56;24.17;;;13.82;;
54947;SDS011;41113;41.882;12.530;2022-10-16T06:03:23;25.15;;;14.65;;
54947;SDS011;41113;41.882;12.530;2022-10-16T06:05:48;22.23;;;13.95;;
54947;SDS011;41113;41.882;12.530;2022-10-16T06:08:26;25.35;;;13.63;;
54947;SDS011;41113;41.882;12.530;2022-10-16T06:11:04;21.95;;;13.27;;
54947;SDS011;41113;41.882;12.530;2022-10-16T06:13:32;20.80;;;12.95;;
54947;SDS011;41113;41.882;12.530;2022-10-16T06:15:58;21.08;;;12.88;;
54947;SDS011;41113;41.882;12.530;2022-10-16T06:18:25;22.20;;;13.32;;
54947;SDS011;41113;41.882;12.530;2022-10-16T06:20:52;23.02;;;12.82;;
54947;SDS011;41113;41.882;12.530;2022-10-16T06:23:18;23.33;;;12.77;;
54947;SDS011;41113;41.882;12.530;2022-10-16T06:25:43;20.80;;;12.20;;
54947;SDS011;41113;41.882;12.530;2022-10-16T06:28:09;18.73;;;11.65;;
54947;SDS011;41113;41.882;12.530;2022-10-16T06:30:34;19.75;;;12.25;;
54947;SDS011;41113;41.882;12.530;2022-10-16T06:32:59;19.42;;;11.52;;
54947;SDS011;41113;41.882;12.530;2022-10-16T06:35:25;20.83;;;11.60;;
54947;SDS011;41113;41.882;12.530;2022-10-16T06:37:52;19.17;;;12.07;;
54947;SDS011;41113;41.882;12.530;2022-10-16T06:40:18;19.08;;;11.48;;
54947;SDS011;41113;41.882;12.530;2022-10-16T06:42:43;22.63;;;12.48;;
54947;SDS011;41113;41.882;12.530;2022-10-16T06:45:09;19.80;;;11.73;;
54947;SDS011;41113;41.882;12.530;2022-10-16T06:47:35;19.42;;;12.30;;
54947;SDS011;41113;41.882;12.530;2022-10-16T06:50:00;24.92;;;12.73;;
54947;SDS011;41113;41.882;12.530;2022-10-16T06:52:27;20.92;;;12.98;;
54947;SDS011;41113;41.882;12.530;2022-10-16T06:54:53;19.70;;;12.60;;
54947;SDS011;41113;41.882;12.530;2022-10-16T06:57:18;19.90;;;12.23;;
54947;SDS011;41113;41.882;12.530;2022-10-16T06:59:44;24.52;;;16.20;;
54947;SDS011;41113;41.882;12.530;2022-10-16T07:02:09;22.83;;;15.43;;
54947;SDS011;41113;41.882;12.530;2022-10-16T07:04:37;23.58;;;13.85;;
54947;SDS011;41113;41.882;12.530;2022-10-16T07:07:03;20.38;;;12.75;;
54947;SDS011;41113;41.882;12.530;2022-10-16T07:09:28;18.75;;;11.05;;
54947;SDS011;41113;41.882;12.530;2022-10-16T07:11:53;19.50;;;12.65;;
54947;SDS011;41113;41.882;12.530;2022-10-16T07:14:19;21.65;;;12.45;;
54947;SDS011;41113;41.882;12.530;2022-10-16T07:16:46;18.08;;;11.45;;
54947;SDS011;41113;41.882;12.530;2022-10-16T07:19:12;18.10;;;11.68;;
54947;SDS011;41113;41.882;12.530;2022-10-16T07:21:39;19.33;;;11.00;;
54947;SDS011;41113;41.882;12.530;2022-10-16T07:24:06;20.15;;;11.13;;
54947;SDS011;41113;41.882;12.530;2022-10-16T07:26:36;20.42;;;10.48;;
54947;SDS011;41113;41.882;12.530;2022-10-16T07:29:04;20.98;;;11.40;;
54947;SDS011;41113;41.882;12.530;2022-10-16T07:31:30;19.35;;;10.57;;
54947;SDS011;41113;41.882;12.530;2022-10-16T07:33:57;19.25;;;10.98;;
54947;SDS011;41113;41.882;12.530;2022-10-16T07:36:23;17.50;;;10.27;;
54947;SDS011;41113;41.882;12.530;2022-10-16T07:38:49;18.88;;;10.32;;
54947;SDS011;41113;41.882;12.530;2022-10-16T07:41:15;17.52;;;10.13;;
54947;SDS011;41113;41.882;12.530;2022-10-16T07:43:49;18.52;;;9.85;;
54947;SDS011;41113;41.882;12.530;2022-10-16T07:46:17;17.00;;;9.70;;
54947;SDS011;41113;41.882;12.530;2022-10-16T07:48:43;18.05;;;10.77;;
54947;SDS011;41113;41.882;12.530;2022-10-16T07:51:12;15.87;;;9.93;;
54947;SDS011;41113;41.882;12.530;2022-10-16T07:53:42;18.42;;;9.68;;
54947;SDS011;41113;41.882;12.530;2022-10-16T07:56:07;19.15;;;10.55;;
54947;SDS011;41113;41.882;12.530;2022-10-16T07:58:34;15.48;;;9.35;;
54947;SDS011;41113;41.882;12.530;2022-10-16T08:01:06;20.27;;;12.32;;
54947;SDS011;41113;41.882;12.530;2022-10-16T08:03:36;21.42;;;12.50;;
54947;SDS011;41113;41.882;12.530;2022-10-16T08:06:02;21.20;;;11.30;;
54947;SDS011;41113;41.882;12.530;2022-10-16T08:08:28;21.05;;;11.23;;
54947;SDS011;41113;41.882;12.530;2022-10-16T08:10:54;19.23;;;10.80;;
54947;SDS011;41113;41.882;12.530;2022-10-16T08:13:20;19.08;;;10.43;;
54947;SDS011;41113;41.882;12.530;2022-10-16T08:15:46;20.08;;;10.50;;
54947;SDS011;41113;41.882;12.530;2022-10-16T08:18:13;17.20;;;10.25;;
54947;SDS011;41113;41.882;12.530;2022-10-16T08:20:40;19.05;;;10.02;;
54947;SDS011;41113;41.882;12.530;2022-10-16T08:23:06;16.23;;;9.40;;
54947;SDS011;41113;41.882;12.530;2022-10-16T08:25:35;16.13;;;9.27;;
54947;SDS011;41113;41.882;12.530;2022-10-16T08:30:30;16.73;;;9.90;;
54947;SDS011;41113;41.882;12.530;2022-10-16T08:32:56;15.75;;;9.55;;
54947;SDS011;41113;41.882;12.530;2022-10-16T08:35:23;16.42;;;9.15;;
54947;SDS011;41113;41.882;12.530;2022-10-16T08:37:49;17.30;;;9.30;;
54947;SDS011;41113;41.882;12.530;2022-10-16T08:40:18;14.55;;;8.88;;
54947;SDS011;41113;41.882;12.530;2022-10-16T08:45:57;17.48;;;8.85;;
54947;SDS011;41113;41.882;12.530;2022-10-16T08:48:48;14.98;;;8.23;;
54947;SDS011;41113;41.882;12.530;2022-10-16T08:54:03;18.40;;;8.68;;
54947;SDS011;41113;41.882;12.530;2022-10-16T08:56:40;15.40;;;9.15;;
54947;SDS011;41113;41.882;12.530;2022-10-16T08:59:09;14.82;;;8.20;;
54947;SDS011;41113;41.882;12.530;2022-10-16T09:01:40;14.48;;;7.97;;
54947;SDS011;41113;41.882;12.530;2022-10-16T09:13:06;15.98;;;7.90;;
54947;SDS011;41113;41.882;12.530;2022-10-16T09:15:47;17.60;;;9.65;;
54947;SDS011;41113;41.882;12.530;2022-10-16T09:23:30;13.85;;;7.60;;
54947;SDS011;41113;41.882;12.530;2022-10-16T09:25:59;15.98;;;8.35;;
54947;SDS011;41113;41.882;12.530;2022-10-16T09:28:25;15.38;;;7.82;;
54947;SDS011;41113;41.882;12.530;2022-10-16T09:30:50;15.57;;;7.95;;
54947;SDS011;41113;41.882;12.530;2022-10-16T09:33:20;15.60;;;7.95;;
54947;SDS011;41113;41.882;12.530;2022-10-16T09:35:53;16.83;;;7.97;;
54947;SDS011;41113;41.882;12.530;2022-10-16T09:38:22;15.70;;;7.80;;
54947;SDS011;41113;41.882;12.530;2022-10-16T09:40:49;15.93;;;8.48;;
54947;SDS011;41113;41.882;12.530;2022-10-16T09:46:04;16.00;;;7.47;;
54947;SDS011;41113;41.882;12.530;2022-10-16T09:48:39;13.85;;;7.40;;
54947;SDS011;41113;41.882;12.530;2022-10-16T09:51:20;12.80;;;6.28;;
54947;SDS011;41113;41.882;12.530;2022-10-16T09:53:48;14.15;;;5.97;;
54947;SDS011;41113;41.882;12.530;2022-10-16T09:56:22;13.40;;;6.22;;
54947;SDS011;41113;41.882;12.530;2022-10-16T09:58:59;12.48;;;6.10;;
54947;SDS011;41113;41.882;12.530;2022-10-16T10:01:40;15.52;;;6.93;;
54947;SDS011;41113;41.882;12.530;2022-10-16T10:04:10;12.82;;;6.90;;
54947;SDS011;41113;41.882;12.530;2022-10-16T10:06:44;12.52;;;6.70;;
54947;SDS011;41113;41.882;12.530;2022-10-16T10:09:20;13.00;;;6.55;;
54947;SDS011;41113;41.882;12.530;2022-10-16T10:11:52;13.70;;;6.75;;
54947;SDS011;41113;41.882;12.530;2022-10-16T10:19:36;10.35;;;5.70;;
54947;SDS011;41113;41.882;12.530;2022-10-16T10:30:32;12.93;;;5.63;;
54947;SDS011;41113;41.882;12.530;2022-10-16T10:33:27;9.63;;;4.93;;
54947;SDS011;41113;41.882;12.530;2022-10-16T10:44:03;11.00;;;3.83;;
54947;SDS011;41113;41.882;12.530;2022-10-16T10:46:42;12.65;;;3.88;;
54947;SDS011;41113;41.882;12.530;2022-10-16T10:52:02;10.30;;;3.50;;
54947;SDS011;41113;41.882;12.530;2022-10-16T11:05:56;9.45;;;3.55;;
54947;SDS011;41113;41.882;12.530;2022-10-16T11:08:47;8.95;;;3.63;;
54947;SDS011;41113;41.882;12.530;2022-10-16T11:11:35;9.77;;;3.92;;
54947;SDS011;41113;41.882;12.530;2022-10-16T11:14:11;11.25;;;4.28;;
54947;SDS011;41113;41.882;12.530;2022-10-16T11:22:10;10.73;;;3.78;;
54947;SDS011;41113;41.882;12.530;2022-10-16T11:24:53;8.65;;;3.45;;
54947;SDS011;41113;41.882;12.530;2022-10-16T11:27:34;9.00;;;3.53;;
54947;SDS011;41113;41.882;12.530;2022-10-16T11:30:04;10.73;;;3.80;;
54947;SDS011;41113;41.882;12.530;2022-10-16T11:35:55;10.45;;;4.03;;
54947;SDS011;41113;41.882;12.530;2022-10-16T11:41:36;13.23;;;3.78;;
54947;SDS011;41113;41.882;12.530;2022-10-16T11:47:12;8.35;;;3.72;;
54947;SDS011;41113;41.882;12.530;2022-10-16T11:49:40;9.25;;;3.67;;
54947;SDS011;41113;41.882;12.530;2022-10-16T11:57:34;10.38;;;3.78;;
54947;SDS011;41113;41.882;12.530;2022-10-16T12:02:57;8.23;;;3.42;;
54947;SDS011;41113;41.882;12.530;2022-10-16T12:06:11;12.35;;;4.90;;
54947;SDS011;41113;41.882;12.530;2022-10-16T12:08:40;10.40;;;3.42;;
54947;SDS011;41113;41.882;12.530;2022-10-16T12:11:08;10.05;;;3.92;;
54947;SDS011;41113;41.882;12.530;2022-10-16T12:14:03;10.45;;;3.25;;
54947;SDS011;41113;41.882;12.530;2022-10-16T12:16:32;8.57;;;3.45;;
54947;SDS011;41113;41.882;12.530;2022-10-16T12:19:18;10.15;;;3.47;;
54947;SDS011;41113;41.882;12.530;2022-10-16T12:21:43;8.52;;;3.25;;
54947;SDS011;41113;41.882;12.530;2022-10-16T12:27:30;8.68;;;2.97;;
54947;SDS011;41113;41.882;12.530;2022-10-16T12:30:00;7.82;;;2.70;;
54947;SDS011;41113;41.882;12.530;2022-10-16T12:35:00;8.88;;;3.20;;
54947;SDS011;41113;41.882;12.530;2022-10-16T12:37:31;8.77;;;3.00;;
54947;SDS011;41113;41.882;12.530;2022-10-16T12:39:58;10.30;;;3.03;;
54947;SDS011;41113;41.882;12.530;2022-10-16T12:42:35;11.13;;;3.00;;
54947;SDS011;41113;41.882;12.530;2022-10-16T12:45:01;7.82;;;2.80;;
54947;SDS011;41113;41.882;12.530;2022-10-16T12:47:46;8.23;;;2.63;;
54947;SDS011;41113;41.882;12.530;2022-10-16T12:50:23;8.98;;;2.63;;
54947;SDS011;41113;41.882;12.530;2022-10-16T12:52:49;9.07;;;2.90;;
54947;SDS011;41113;41.882;12.530;2022-10-16T12:55:18;11.50;;;3.25;;
54947;SDS011;41113;41.882;12.530;2022-10-16T13:00:26;10.25;;;3.35;;
54947;SDS011;41113;41.882;12.530;2022-10-16T13:22:13;9.90;;;2.97;;
54947;SDS011;41113;41.882;12.530;2022-10-16T13:30:16;12.75;;;4.90;;
54947;SDS011;41113;41.882;12.530;2022-10-16T13:32:48;10.30;;;3.70;;
54947;SDS011;41113;41.882;12.530;2022-10-16T13:35:18;10.15;;;3.60;;
54947;SDS011;41113;41.882;12.530;2022-10-16T13:37:46;11.15;;;3.63;;
54947;SDS011;41113;41.882;12.530;2022-10-16T13:40:17;9.48;;;3.30;;
54947;SDS011;41113;41.882;12.530;2022-10-16T13:42:45;10.63;;;3.17;;
54947;SDS011;41113;41.882;12.530;2022-10-16T13:45:17;9.02;;;2.97;;
54947;SDS011;41113;41.882;12.530;2022-10-16T13:47:47;9.90;;;3.15;;
54947;SDS011;41113;41.882;12.530;2022-10-16T13:50:14;12.82;;;5.72;;
54947;SDS011;41113;41.882;12.530;2022-10-16T13:52:42;9.82;;;3.50;;
54947;SDS011;41113;41.882;12.530;2022-10-16T13:55:14;10.15;;;4.25;;
54947;SDS011;41113;41.882;12.530;2022-10-16T13:57:42;11.77;;;3.95;;
54947;SDS011;41113;41.882;12.530;2022-10-16T14:00:25;9.63;;;3.38;;
54947;SDS011;41113;41.882;12.530;2022-10-16T14:03:07;9.95;;;3.67;;
54947;SDS011;41113;41.882;12.530;2022-10-16T14:08:14;8.98;;;3.13;;
54947;SDS011;41113;41.882;12.530;2022-10-16T14:10:40;8.15;;;2.67;;
54947;SDS011;41113;41.882;12.530;2022-10-16T14:13:06;9.68;;;3.10;;
54947;SDS011;41113;41.882;12.530;2022-10-16T14:15:33;8.90;;;3.00;;
54947;SDS011;41113;41.882;12.530;2022-10-16T14:18:01;9.50;;;3.00;;
54947;SDS011;41113;41.882;12.530;2022-10-16T14:20:30;7.97;;;2.80;;
54947;SDS011;41113;41.882;12.530;2022-10-16T14:23:04;9.87;;;2.90;;
54947;SDS011;41113;41.882;12.530;2022-10-16T14:25:44;11.02;;;3.50;;
54947;SDS011;41113;41.882;12.530;2022-10-16T14:30:48;7.80;;;2.78;;
54947;SDS011;41113;41.882;12.530;2022-10-16T14:33:20;8.50;;;2.80;;
54947;SDS011;41113;41.882;12.530;2022-10-16T14:38:40;8.65;;;2.55;;
54947;SDS011;41113;41.882;12.530;2022-10-16T14:41:07;7.63;;;2.60;;
54947;SDS011;41113;41.882;12.530;2022-10-16T14:43:35;8.75;;;2.92;;
54947;SDS011;41113;41.882;12.530;2022-10-16T14:46:03;9.75;;;3.25;;
54947;SDS011;41113;41.882;12.530;2022-10-16T14:48:34;11.15;;;2.95;;
54947;SDS011;41113;41.882;12.530;2022-10-16T14:51:00;10.63;;;3.30;;
54947;SDS011;41113;41.882;12.530;2022-10-16T14:53:25;11.20;;;2.90;;
54947;SDS011;41113;41.882;12.530;2022-10-16T14:55:50;10.60;;;2.95;;
54947;SDS011;41113;41.882;12.530;2022-10-16T14:58:22;7.50;;;2.83;;
54947;SDS011;41113;41.882;12.530;2022-10-16T15:00:49;9.77;;;2.72;;
54947;SDS011;41113;41.882;12.530;2022-10-16T15:03:15;9.02;;;2.88;;
54947;SDS011;41113;41.882;12.530;2022-10-16T15:05:40;9.73;;;2.80;;
54947;SDS011;41113;41.882;12.530;2022-10-16T15:08:06;10.68;;;3.53;;
54947;SDS011;41113;41.882;12.530;2022-10-16T15:10:32;10.45;;;2.78;;
54947;SDS011;41113;41.882;12.530;2022-10-16T15:13:02;7.07;;;1.92;;
54947;SDS011;41113;41.882;12.530;2022-10-16T15:15:32;10.68;;;2.78;;
54947;SDS011;41113;41.882;12.530;2022-10-16T15:18:00;11.45;;;2.63;;
54947;SDS011;41113;41.882;12.530;2022-10-16T15:20:28;15.40;;;3.33;;
54947;SDS011;41113;41.882;12.530;2022-10-16T15:22:59;9.70;;;2.80;;
54947;SDS011;41113;41.882;12.530;2022-10-16T15:25:37;10.57;;;3.00;;
54947;SDS011;41113;41.882;12.530;2022-10-16T15:28:22;7.90;;;2.88;;
54947;SDS011;41113;41.882;12.530;2022-10-16T15:30:51;9.48;;;2.60;;
54947;SDS011;41113;41.882;12.530;2022-10-16T15:33:19;505.50;;;318.23;;
54947;SDS011;41113;41.882;12.530;2022-10-16T15:35:51;320.10;;;194.43;;
54947;SDS011;41113;41.882;12.530;2022-10-16T15:38:18;297.58;;;173.90;;
54947;SDS011;41113;41.882;12.530;2022-10-16T15:40:45;143.35;;;83.57;;
54947;SDS011;41113;41.882;12.530;2022-10-16T15:43:11;174.90;;;100.18;;
54947;SDS011;41113;41.882;12.530;2022-10-16T15:45:37;153.55;;;96.45;;
54947;SDS011;41113;41.882;12.530;2022-10-16T15:48:02;76.97;;;47.72;;
54947;SDS011;41113;41.882;12.530;2022-10-16T15:50:30;50.60;;;31.02;;
54947;SDS011;41113;41.882;12.530;2022-10-16T15:52:56;142.70;;;98.55;;
54947;SDS011;41113;41.882;12.530;2022-10-16T15:55:22;117.18;;;65.05;;
54947;SDS011;41113;41.882;12.530;2022-10-16T15:57:47;172.90;;;78.32;;
54947;SDS011;41113;41.882;12.530;2022-10-16T16:00:14;132.07;;;62.50;;
54947;SDS011;41113;41.882;12.530;2022-10-16T16:02:48;108.95;;;45.53;;
54947;SDS011;41113;41.882;12.530;2022-10-16T16:05:16;67.10;;;32.05;;
54947;SDS011;41113;41.882;12.530;2022-10-16T16:07:41;53.58;;;27.02;;
54947;SDS011;41113;41.882;12.530;2022-10-16T16:10:07;85.32;;;43.53;;
54947;SDS011;41113;41.882;12.530;2022-10-16T16:12:35;35.53;;;18.77;;
54947;SDS011;41113;41.882;12.530;2022-10-16T16:15:02;73.57;;;49.58;;
54947;SDS011;41113;41.882;12.530;2022-10-16T16:17:30;49.22;;;28.23;;
54947;SDS011;41113;41.882;12.530;2022-10-16T16:19:56;33.80;;;18.38;;
54947;SDS011;41113;41.882;12.530;2022-10-16T16:22:21;24.23;;;10.93;;
54947;SDS011;41113;41.882;12.530;2022-10-16T16:24:47;19.63;;;9.55;;
54947;SDS011;41113;41.882;12.530;2022-10-16T16:27:12;14.38;;;6.60;;
54947;SDS011;41113;41.882;12.530;2022-10-16T16:29:38;14.98;;;6.68;;
54947;SDS011;41113;41.882;12.530;2022-10-16T16:32:04;13.00;;;5.68;;
54947;SDS011;41113;41.882;12.530;2022-10-16T16:34:30;12.55;;;4.80;;
54947;SDS011;41113;41.882;12.530;2022-10-16T16:36:55;12.02;;;4.70;;
54947;SDS011;41113;41.882;12.530;2022-10-16T16:39:22;11.13;;;4.30;;
54947;SDS011;41113;41.882;12.530;2022-10-16T16:41:47;13.90;;;4.00;;
54947;SDS011;41113;41.882;12.530;2022-10-16T16:44:14;12.95;;;3.67;;
54947;SDS011;41113;41.882;12.530;2022-10-16T16:46:41;12.57;;;3.60;;
54947;SDS011;41113;41.882;12.530;2022-10-16T16:49:09;10.43;;;3.53;;
54947;SDS011;41113;41.882;12.530;2022-10-16T16:51:36;12.47;;;4.00;;
54947;SDS011;41113;41.882;12.530;2022-10-16T16:54:02;11.10;;;3.47;;
54947;SDS011;41113;41.882;12.530;2022-10-16T16:56:27;7.90;;;3.00;;
54947;SDS011;41113;41.882;12.530;2022-10-16T16:58:54;11.52;;;3.60;;
54947;SDS011;41113;41.882;12.530;2022-10-16T17:01:21;10.25;;;2.97;;